»·PEaware :: N9401L KSBA-KSBP

N9401L :: KSBA-KSBP

FLIGHT INFORMATION

Flight Status: Arrived
Operator: Privately registered:
United States
More flights under this callsign
Pilot: Juan D. (11620)
Aircraft: Unknown
(P28U)
More flights by this aircraft type
Origin: KSBA Santa Barbara Mun
United States
Destination: KSBP San Luis Co Regl
United States
More flights between these airports :: More routes between these airports
Route: +GVO V27 MQO
File this flight plan on PilotEdge
Remarks:
Altitude:
(Current/Filed)
6,000ft
Speed:
(Current/Filed)
160kts
Departed: 15-Mar-20 11:34 AM
Arrived: 15-Mar-20 12:13 PM
Distance/Time
Traveled:
63nm/0:38
Distance/Time
To Go:
Arrived

Flight Plot

Page will automatically refresh every two minutes.


Map Options




Map Legend


Flown Route
Filed Route
Departure Airport
Arrival Airport
Navaid (VOR, NDB)
Fix

Horizontal Profiles

Position Reports

Time Latitude Longitude Heading Altitude Ground
Speed
15-Mar-20 11:13 34.432568 -119.835091 71 16ft 0kts
15-Mar-20 11:14 34.432568 -119.835091 71 16ft 0kts
15-Mar-20 11:15 34.432568 -119.835091 71 16ft 0kts
15-Mar-20 11:16 34.432568 -119.835091 71 16ft 0kts
15-Mar-20 11:17 34.432568 -119.835091 71 16ft 0kts
15-Mar-20 11:18 34.432568 -119.835091 71 16ft 0kts
15-Mar-20 11:19 34.432568 -119.835091 71 16ft 0kts
15-Mar-20 11:20 34.432568 -119.835091 71 16ft 0kts
15-Mar-20 11:21 34.432568 -119.835091 71 16ft 0kts
15-Mar-20 11:22 34.432568 -119.835091 71 16ft 0kts
15-Mar-20 11:23 34.432568 -119.835091 71 16ft 0kts
15-Mar-20 11:24 34.432568 -119.835091 71 16ft 0kts
15-Mar-20 11:25 34.432568 -119.835091 71 16ft 0kts
15-Mar-20 11:26 34.432568 -119.835091 71 16ft 0kts
15-Mar-20 11:27 34.432568 -119.835091 71 16ft 0kts
15-Mar-20 11:28 34.432568 -119.835091 71 16ft 0kts
15-Mar-20 11:29 34.432568 -119.835091 71 16ft 0kts
15-Mar-20 11:30 34.431548 -119.836954 247 16ft 27kts
15-Mar-20 11:31 34.430721 -119.839709 249 16ft 0kts
15-Mar-20 11:32 34.430721 -119.839709 249 16ft 0kts
15-Mar-20 11:33 34.421628 -119.837597 159 346ft 73kts
15-Mar-20 11:34 34.401325 -119.830589 160 1338ft 76kts
15-Mar-20 11:35 34.380774 -119.823700 159 2352ft 74kts
15-Mar-20 11:36 34.360737 -119.816780 159 3467ft 67kts
15-Mar-20 11:37 34.352531 -119.837731 259 4617ft 87kts
15-Mar-20 11:38 34.352684 -119.865990 257 5702ft 84kts
15-Mar-20 11:39 34.352211 -119.902506 258 6009ft 142kts
15-Mar-20 11:40 34.360684 -119.948548 321 6002ft 164kts
15-Mar-20 11:41 34.397831 -119.980805 319 6005ft 164kts
15-Mar-20 11:42 34.434609 -120.013393 319 6003ft 164kts
15-Mar-20 11:43 34.471457 -120.045262 319 6001ft 163kts
15-Mar-20 11:44 34.508010 -120.076578 317 5999ft 161kts
15-Mar-20 11:45 34.542946 -120.107730 317 5997ft 160kts
15-Mar-20 11:46 34.577151 -120.137985 317 5997ft 160kts
15-Mar-20 11:47 34.611100 -120.168989 316 5997ft 159kts
15-Mar-20 11:48 34.645802 -120.201062 316 5997ft 159kts
15-Mar-20 11:49 34.680955 -120.233439 316 5997ft 159kts
15-Mar-20 11:50 34.716108 -120.265843 316 5996ft 159kts
15-Mar-20 11:51 34.750649 -120.297421 316 5989ft 159kts
15-Mar-20 11:52 34.783137 -120.326807 316 5983ft 158kts
15-Mar-20 11:53 34.818835 -120.358784 316 5978ft 158kts
15-Mar-20 11:54 34.854145 -120.390257 316 5973ft 157kts
15-Mar-20 11:55 34.889386 -120.421647 316 5970ft 157kts
15-Mar-20 11:56 34.924231 -120.453080 316 5970ft 156kts
15-Mar-20 11:57 34.959792 -120.483734 341 5961ft 164kts
15-Mar-20 11:58 35.004575 -120.493617 346 5970ft 163kts
15-Mar-20 11:59 35.037959 -120.500492 345 5296ft 92kts
15-Mar-20 12:00 35.067659 -120.507271 346 4670ft 136kts
15-Mar-20 12:01 35.085654 -120.540573 284 3801ft 139kts
15-Mar-20 12:02 35.096887 -120.579030 284 3095ft 139kts
15-Mar-20 12:03 35.107099 -120.615493 284 2995ft 141kts
15-Mar-20 12:04 35.117929 -120.655055 283 2993ft 142kts
15-Mar-20 12:05 35.129056 -120.696551 283 2991ft 143kts
15-Mar-20 12:06 35.154990 -120.697976 75 2982ft 137kts
15-Mar-20 12:07 35.155045 -120.661505 68 3131ft 134kts
15-Mar-20 12:08 35.175118 -120.629380 53 2552ft 155kts
15-Mar-20 12:09 35.198367 -120.602041 24 1853ft 117kts
15-Mar-20 12:10 35.221480 -120.613682 306 863ft 107kts
15-Mar-20 12:11 35.233775 -120.634723 304 225ft 70kts
15-Mar-20 12:12 35.237655 -120.639809 47 215ft 0kts
15-Mar-20 12:13 35.237570 -120.639513 125 215ft 13kts
15-Mar-20 12:14 35.237564 -120.636685 309 215ft 0kts
15-Mar-20 12:15 35.237564 -120.636685 309 215ft 0kts
15-Mar-20 12:16 35.237564 -120.636685 309 215ft 0kts
15-Mar-20 12:17 35.237564 -120.636685 309 215ft 0kts
15-Mar-20 12:18 35.237564 -120.636685 309 215ft 0kts
15-Mar-20 12:19 35.237564 -120.636685 309 215ft 0kts
15-Mar-20 12:20 35.237564 -120.636685 309 215ft 0kts
15-Mar-20 12:21 35.237564 -120.636685 309 215ft 0kts
15-Mar-20 12:22 35.237564 -120.636685 309 215ft 0kts
15-Mar-20 12:23 35.237564 -120.636685 309 215ft 0kts
15-Mar-20 12:24 35.237564 -120.636685 309 215ft 0kts
15-Mar-20 12:25 35.237564 -120.636685 309 215ft 0kts
15-Mar-20 12:26 35.237564 -120.636685 309 215ft 0kts

Navigation Log

Ident Type
Flight plan parsing failed, navigation log unavailable